sensor_id;sensor_type;location;lat;lon;timestamp;P1;durP1;ratioP1;P2;durP2;ratioP2
1925;SDS011;964;42.606;23.588;2022-10-22T00:01:58;15.60;;;10.30;;
1925;SDS011;964;42.606;23.588;2022-10-22T00:04:25;17.90;;;11.70;;
1925;SDS011;964;42.606;23.588;2022-10-22T00:06:53;12.20;;;9.47;;
1925;SDS011;964;42.606;23.588;2022-10-22T00:09:20;16.00;;;11.20;;
1925;SDS011;964;42.606;23.588;2022-10-22T00:11:47;15.13;;;10.37;;
1925;SDS011;964;42.606;23.588;2022-10-22T00:14:14;17.73;;;10.43;;
1925;SDS011;964;42.606;23.588;2022-10-22T00:16:40;16.77;;;10.50;;
1925;SDS011;964;42.606;23.588;2022-10-22T00:19:07;13.50;;;10.77;;
1925;SDS011;964;42.606;23.588;2022-10-22T00:21:35;17.00;;;11.33;;
1925;SDS011;964;42.606;23.588;2022-10-22T00:24:03;24.53;;;11.60;;
1925;SDS011;964;42.606;23.588;2022-10-22T00:26:30;18.80;;;12.20;;
1925;SDS011;964;42.606;23.588;2022-10-22T00:28:57;18.83;;;12.13;;
1925;SDS011;964;42.606;23.588;2022-10-22T00:31:24;17.80;;;11.43;;
1925;SDS011;964;42.606;23.588;2022-10-22T00:33:51;16.10;;;11.23;;
1925;SDS011;964;42.606;23.588;2022-10-22T00:36:18;15.60;;;11.50;;
1925;SDS011;964;42.606;23.588;2022-10-22T00:38:44;17.23;;;11.00;;
1925;SDS011;964;42.606;23.588;2022-10-22T00:41:13;20.50;;;11.83;;
1925;SDS011;964;42.606;23.588;2022-10-22T00:43:52;18.70;;;11.17;;
1925;SDS011;964;42.606;23.588;2022-10-22T00:46:21;18.50;;;12.20;;
1925;SDS011;964;42.606;23.588;2022-10-22T00:48:48;18.40;;;10.83;;
1925;SDS011;964;42.606;23.588;2022-10-22T00:51:15;16.20;;;10.80;;
1925;SDS011;964;42.606;23.588;2022-10-22T00:53:44;16.50;;;11.20;;
1925;SDS011;964;42.606;23.588;2022-10-22T00:56:21;19.70;;;11.57;;
1925;SDS011;964;42.606;23.588;2022-10-22T00:58:50;15.07;;;10.70;;
1925;SDS011;964;42.606;23.588;2022-10-22T01:01:19;15.47;;;11.27;;
1925;SDS011;964;42.606;23.588;2022-10-22T01:03:49;19.60;;;12.20;;
1925;SDS011;964;42.606;23.588;2022-10-22T01:06:17;16.87;;;11.10;;
1925;SDS011;964;42.606;23.588;2022-10-22T01:08:49;19.77;;;11.67;;
1925;SDS011;964;42.606;23.588;2022-10-22T01:11:26;17.47;;;12.90;;
1925;SDS011;964;42.606;23.588;2022-10-22T01:14:03;17.97;;;11.30;;
1925;SDS011;964;42.606;23.588;2022-10-22T01:16:40;16.67;;;11.00;;
1925;SDS011;964;42.606;23.588;2022-10-22T01:19:22;18.80;;;12.40;;
1925;SDS011;964;42.606;23.588;2022-10-22T01:21:58;19.70;;;11.77;;
1925;SDS011;964;42.606;23.588;2022-10-22T01:24:37;14.80;;;10.97;;
1925;SDS011;964;42.606;23.588;2022-10-22T01:27:18;19.90;;;11.67;;
1925;SDS011;964;42.606;23.588;2022-10-22T01:29:54;16.20;;;11.93;;
1925;SDS011;964;42.606;23.588;2022-10-22T01:32:26;19.13;;;11.83;;
1925;SDS011;964;42.606;23.588;2022-10-22T01:34:59;17.50;;;12.23;;
1925;SDS011;964;42.606;23.588;2022-10-22T01:37:28;17.40;;;11.07;;
1925;SDS011;964;42.606;23.588;2022-10-22T01:39:59;20.37;;;12.67;;
1925;SDS011;964;42.606;23.588;2022-10-22T01:42:29;18.87;;;11.57;;
1925;SDS011;964;42.606;23.588;2022-10-22T01:44:58;18.23;;;12.43;;
1925;SDS011;964;42.606;23.588;2022-10-22T01:47:28;16.70;;;11.70;;
1925;SDS011;964;42.606;23.588;2022-10-22T01:50:18;17.13;;;12.20;;
1925;SDS011;964;42.606;23.588;2022-10-22T01:52:57;20.57;;;11.03;;
1925;SDS011;964;42.606;23.588;2022-10-22T01:55:38;18.03;;;11.00;;
1925;SDS011;964;42.606;23.588;2022-10-22T01:58:18;16.57;;;11.07;;
1925;SDS011;964;42.606;23.588;2022-10-22T02:00:57;21.27;;;12.87;;
1925;SDS011;964;42.606;23.588;2022-10-22T02:03:31;17.70;;;10.93;;
1925;SDS011;964;42.606;23.588;2022-10-22T02:06:02;17.63;;;11.57;;
1925;SDS011;964;42.606;23.588;2022-10-22T02:08:36;16.37;;;12.30;;
1925;SDS011;964;42.606;23.588;2022-10-22T02:11:04;20.47;;;11.20;;
1925;SDS011;964;42.606;23.588;2022-10-22T02:13:36;17.50;;;11.27;;
1925;SDS011;964;42.606;23.588;2022-10-22T02:16:09;18.07;;;11.83;;
1925;SDS011;964;42.606;23.588;2022-10-22T02:18:42;15.67;;;10.27;;
1925;SDS011;964;42.606;23.588;2022-10-22T02:21:11;18.70;;;11.60;;
1925;SDS011;964;42.606;23.588;2022-10-22T02:23:39;20.63;;;11.60;;
1925;SDS011;964;42.606;23.588;2022-10-22T02:26:08;20.10;;;11.90;;
1925;SDS011;964;42.606;23.588;2022-10-22T02:28:42;18.77;;;11.60;;
1925;SDS011;964;42.606;23.588;2022-10-22T02:31:18;17.97;;;12.30;;
1925;SDS011;964;42.606;23.588;2022-10-22T02:33:49;15.87;;;10.33;;
1925;SDS011;964;42.606;23.588;2022-10-22T02:36:20;17.87;;;11.20;;
1925;SDS011;964;42.606;23.588;2022-10-22T02:38:48;15.70;;;10.23;;
1925;SDS011;964;42.606;23.588;2022-10-22T02:41:16;17.53;;;10.00;;
1925;SDS011;964;42.606;23.588;2022-10-22T02:43:49;17.83;;;10.67;;
1925;SDS011;964;42.606;23.588;2022-10-22T02:46:20;19.30;;;11.70;;
1925;SDS011;964;42.606;23.588;2022-10-22T02:48:47;16.57;;;11.10;;
1925;SDS011;964;42.606;23.588;2022-10-22T02:51:14;16.10;;;11.70;;
1925;SDS011;964;42.606;23.588;2022-10-22T02:53:41;18.50;;;11.23;;
1925;SDS011;964;42.606;23.588;2022-10-22T02:56:08;20.07;;;12.03;;
1925;SDS011;964;42.606;23.588;2022-10-22T02:58:35;21.70;;;12.40;;
1925;SDS011;964;42.606;23.588;2022-10-22T03:01:02;25.33;;;12.20;;
1925;SDS011;964;42.606;23.588;2022-10-22T03:03:30;23.97;;;12.97;;
1925;SDS011;964;42.606;23.588;2022-10-22T03:05:57;19.60;;;12.40;;
1925;SDS011;964;42.606;23.588;2022-10-22T03:08:24;21.80;;;12.73;;
1925;SDS011;964;42.606;23.588;2022-10-22T03:10:51;20.27;;;13.57;;
1925;SDS011;964;42.606;23.588;2022-10-22T03:13:18;25.20;;;13.83;;
1925;SDS011;964;42.606;23.588;2022-10-22T03:15:47;22.30;;;12.80;;
1925;SDS011;964;42.606;23.588;2022-10-22T03:18:14;17.87;;;12.67;;
1925;SDS011;964;42.606;23.588;2022-10-22T03:20:43;21.27;;;14.10;;
1925;SDS011;964;42.606;23.588;2022-10-22T03:23:10;20.53;;;12.60;;
1925;SDS011;964;42.606;23.588;2022-10-22T03:25:39;23.43;;;13.33;;
1925;SDS011;964;42.606;23.588;2022-10-22T03:28:09;24.10;;;14.60;;
1925;SDS011;964;42.606;23.588;2022-10-22T03:30:38;21.87;;;15.07;;
1925;SDS011;964;42.606;23.588;2022-10-22T03:33:05;20.27;;;13.03;;
1925;SDS011;964;42.606;23.588;2022-10-22T03:35:32;23.97;;;14.17;;
1925;SDS011;964;42.606;23.588;2022-10-22T03:38:07;22.33;;;12.97;;
1925;SDS011;964;42.606;23.588;2022-10-22T03:40:34;20.97;;;14.63;;
1925;SDS011;964;42.606;23.588;2022-10-22T03:43:01;25.33;;;14.17;;
1925;SDS011;964;42.606;23.588;2022-10-22T03:45:28;21.37;;;14.30;;
1925;SDS011;964;42.606;23.588;2022-10-22T03:47:54;25.77;;;14.87;;
1925;SDS011;964;42.606;23.588;2022-10-22T03:50:22;32.83;;;18.23;;
1925;SDS011;964;42.606;23.588;2022-10-22T03:52:49;32.57;;;17.77;;
1925;SDS011;964;42.606;23.588;2022-10-22T03:55:18;24.67;;;15.20;;
1925;SDS011;964;42.606;23.588;2022-10-22T03:57:45;29.60;;;16.60;;
1925;SDS011;964;42.606;23.588;2022-10-22T04:00:13;28.13;;;15.80;;
1925;SDS011;964;42.606;23.588;2022-10-22T04:02:40;30.30;;;15.77;;
1925;SDS011;964;42.606;23.588;2022-10-22T04:05:07;26.83;;;16.40;;
1925;SDS011;964;42.606;23.588;2022-10-22T04:07:34;27.87;;;15.30;;
1925;SDS011;964;42.606;23.588;2022-10-22T04:10:01;25.77;;;15.17;;
1925;SDS011;964;42.606;23.588;2022-10-22T04:12:29;19.87;;;13.70;;
1925;SDS011;964;42.606;23.588;2022-10-22T04:14:56;19.97;;;13.30;;
1925;SDS011;964;42.606;23.588;2022-10-22T04:17:23;22.87;;;13.70;;
1925;SDS011;964;42.606;23.588;2022-10-22T04:19:49;21.70;;;13.70;;
1925;SDS011;964;42.606;23.588;2022-10-22T04:22:16;25.13;;;15.40;;
1925;SDS011;964;42.606;23.588;2022-10-22T04:24:43;23.00;;;14.03;;
1925;SDS011;964;42.606;23.588;2022-10-22T04:27:10;21.43;;;13.93;;
1925;SDS011;964;42.606;23.588;2022-10-22T04:29:38;24.70;;;15.87;;
1925;SDS011;964;42.606;23.588;2022-10-22T04:32:05;20.10;;;14.70;;
1925;SDS011;964;42.606;23.588;2022-10-22T04:34:32;23.20;;;15.03;;
1925;SDS011;964;42.606;23.588;2022-10-22T04:36:58;29.00;;;18.03;;
1925;SDS011;964;42.606;23.588;2022-10-22T04:39:25;24.73;;;16.80;;
1925;SDS011;964;42.606;23.588;2022-10-22T04:41:52;25.30;;;15.43;;
1925;SDS011;964;42.606;23.588;2022-10-22T04:44:19;27.40;;;16.63;;
1925;SDS011;964;42.606;23.588;2022-10-22T04:46:47;33.27;;;17.73;;
1925;SDS011;964;42.606;23.588;2022-10-22T04:49:14;29.97;;;18.50;;
1925;SDS011;964;42.606;23.588;2022-10-22T04:51:41;30.90;;;20.40;;
1925;SDS011;964;42.606;23.588;2022-10-22T04:54:08;33.70;;;21.37;;
1925;SDS011;964;42.606;23.588;2022-10-22T04:56:44;48.10;;;26.27;;
1925;SDS011;964;42.606;23.588;2022-10-22T04:59:14;42.90;;;22.70;;
1925;SDS011;964;42.606;23.588;2022-10-22T05:01:42;50.33;;;28.93;;
1925;SDS011;964;42.606;23.588;2022-10-22T05:04:12;37.30;;;22.10;;
1925;SDS011;964;42.606;23.588;2022-10-22T05:06:40;26.67;;;17.13;;
1925;SDS011;964;42.606;23.588;2022-10-22T05:09:07;24.87;;;14.80;;
1925;SDS011;964;42.606;23.588;2022-10-22T05:11:38;19.70;;;14.03;;
1925;SDS011;964;42.606;23.588;2022-10-22T05:14:06;20.00;;;12.90;;
1925;SDS011;964;42.606;23.588;2022-10-22T05:16:33;17.10;;;13.30;;
1925;SDS011;964;42.606;23.588;2022-10-22T05:19:02;20.27;;;14.00;;
1925;SDS011;964;42.606;23.588;2022-10-22T05:21:30;24.27;;;13.00;;
1925;SDS011;964;42.606;23.588;2022-10-22T05:23:57;15.97;;;13.50;;
1925;SDS011;964;42.606;23.588;2022-10-22T05:26:25;17.53;;;13.07;;
1925;SDS011;964;42.606;23.588;2022-10-22T05:28:52;17.13;;;13.10;;
1925;SDS011;964;42.606;23.588;2022-10-22T05:31:19;19.40;;;14.07;;
1925;SDS011;964;42.606;23.588;2022-10-22T05:33:46;17.50;;;13.50;;
1925;SDS011;964;42.606;23.588;2022-10-22T05:36:14;20.37;;;13.47;;
1925;SDS011;964;42.606;23.588;2022-10-22T05:38:43;22.33;;;15.33;;
1925;SDS011;964;42.606;23.588;2022-10-22T05:41:11;21.53;;;12.90;;
1925;SDS011;964;42.606;23.588;2022-10-22T05:43:39;21.10;;;14.97;;
1925;SDS011;964;42.606;23.588;2022-10-22T05:46:07;25.77;;;14.73;;
1925;SDS011;964;42.606;23.588;2022-10-22T05:48:35;23.87;;;15.30;;
1925;SDS011;964;42.606;23.588;2022-10-22T05:51:03;21.03;;;14.33;;
1925;SDS011;964;42.606;23.588;2022-10-22T05:53:31;23.23;;;14.90;;
1925;SDS011;964;42.606;23.588;2022-10-22T05:56:00;19.90;;;13.40;;
1925;SDS011;964;42.606;23.588;2022-10-22T05:58:27;28.03;;;14.93;;
1925;SDS011;964;42.606;23.588;2022-10-22T06:00:59;22.13;;;14.07;;
1925;SDS011;964;42.606;23.588;2022-10-22T06:03:26;25.67;;;16.37;;
1925;SDS011;964;42.606;23.588;2022-10-22T06:05:55;23.70;;;15.60;;
1925;SDS011;964;42.606;23.588;2022-10-22T06:08:23;22.13;;;14.73;;
1925;SDS011;964;42.606;23.588;2022-10-22T06:10:50;21.33;;;15.07;;
1925;SDS011;964;42.606;23.588;2022-10-22T06:13:18;21.07;;;15.37;;
1925;SDS011;964;42.606;23.588;2022-10-22T06:15:45;19.77;;;14.93;;
1925;SDS011;964;42.606;23.588;2022-10-22T06:18:12;24.70;;;15.43;;
1925;SDS011;964;42.606;23.588;2022-10-22T06:20:38;19.70;;;14.77;;
1925;SDS011;964;42.606;23.588;2022-10-22T06:23:07;21.53;;;15.07;;
1925;SDS011;964;42.606;23.588;2022-10-22T06:25:34;20.87;;;15.20;;
1925;SDS011;964;42.606;23.588;2022-10-22T06:28:01;23.70;;;15.50;;
1925;SDS011;964;42.606;23.588;2022-10-22T06:30:30;21.70;;;14.93;;
1925;SDS011;964;42.606;23.588;2022-10-22T06:32:58;21.40;;;14.70;;
1925;SDS011;964;42.606;23.588;2022-10-22T06:35:24;19.50;;;13.97;;
1925;SDS011;964;42.606;23.588;2022-10-22T06:37:51;18.07;;;14.70;;
1925;SDS011;964;42.606;23.588;2022-10-22T06:40:18;20.90;;;13.23;;
1925;SDS011;964;42.606;23.588;2022-10-22T06:42:46;23.43;;;15.33;;
1925;SDS011;964;42.606;23.588;2022-10-22T06:45:13;24.83;;;15.17;;
1925;SDS011;964;42.606;23.588;2022-10-22T06:47:41;20.53;;;15.10;;
1925;SDS011;964;42.606;23.588;2022-10-22T06:50:08;19.70;;;14.03;;
1925;SDS011;964;42.606;23.588;2022-10-22T06:52:35;22.53;;;14.00;;
1925;SDS011;964;42.606;23.588;2022-10-22T06:55:02;17.97;;;13.97;;
1925;SDS011;964;42.606;23.588;2022-10-22T06:57:29;17.80;;;13.63;;
1925;SDS011;964;42.606;23.588;2022-10-22T06:59:56;16.43;;;14.60;;
1925;SDS011;964;42.606;23.588;2022-10-22T07:02:23;21.37;;;13.40;;
1925;SDS011;964;42.606;23.588;2022-10-22T07:04:51;16.60;;;13.47;;
1925;SDS011;964;42.606;23.588;2022-10-22T07:07:18;15.63;;;13.70;;
1925;SDS011;964;42.606;23.588;2022-10-22T07:09:44;18.33;;;13.13;;
1925;SDS011;964;42.606;23.588;2022-10-22T07:12:13;20.73;;;14.90;;
1925;SDS011;964;42.606;23.588;2022-10-22T07:14:40;16.73;;;13.23;;
1925;SDS011;964;42.606;23.588;2022-10-22T07:17:07;18.80;;;14.60;;
1925;SDS011;964;42.606;23.588;2022-10-22T07:19:34;20.70;;;13.17;;
1925;SDS011;964;42.606;23.588;2022-10-22T07:22:02;18.63;;;12.27;;
1925;SDS011;964;42.606;23.588;2022-10-22T07:24:29;21.47;;;14.60;;
1925;SDS011;964;42.606;23.588;2022-10-22T07:26:55;15.20;;;12.93;;
1925;SDS011;964;42.606;23.588;2022-10-22T07:29:23;15.43;;;12.70;;
1925;SDS011;964;42.606;23.588;2022-10-22T07:31:50;15.70;;;12.83;;
1925;SDS011;964;42.606;23.588;2022-10-22T07:34:17;19.30;;;14.83;;
1925;SDS011;964;42.606;23.588;2022-10-22T07:36:43;17.70;;;12.93;;
1925;SDS011;964;42.606;23.588;2022-10-22T07:39:12;17.00;;;12.50;;
1925;SDS011;964;42.606;23.588;2022-10-22T07:41:39;13.93;;;12.33;;
1925;SDS011;964;42.606;23.588;2022-10-22T07:44:06;16.00;;;12.30;;
1925;SDS011;964;42.606;23.588;2022-10-22T07:46:32;16.17;;;12.70;;
1925;SDS011;964;42.606;23.588;2022-10-22T07:49:00;16.40;;;12.87;;
1925;SDS011;964;42.606;23.588;2022-10-22T07:51:27;21.40;;;13.57;;
1925;SDS011;964;42.606;23.588;2022-10-22T07:53:53;16.00;;;12.77;;
1925;SDS011;964;42.606;23.588;2022-10-22T07:56:22;13.53;;;12.13;;
1925;SDS011;964;42.606;23.588;2022-10-22T07:58:48;17.63;;;11.70;;
1925;SDS011;964;42.606;23.588;2022-10-22T08:01:15;14.30;;;12.90;;
1925;SDS011;964;42.606;23.588;2022-10-22T08:03:42;13.37;;;11.50;;
1925;SDS011;964;42.606;23.588;2022-10-22T08:06:10;14.57;;;12.33;;
1925;SDS011;964;42.606;23.588;2022-10-22T08:08:38;15.03;;;12.70;;
1925;SDS011;964;42.606;23.588;2022-10-22T08:11:05;13.30;;;11.23;;
1925;SDS011;964;42.606;23.588;2022-10-22T08:13:34;15.40;;;12.20;;
1925;SDS011;964;42.606;23.588;2022-10-22T08:16:00;13.50;;;11.43;;
1925;SDS011;964;42.606;23.588;2022-10-22T08:18:27;13.77;;;12.33;;
1925;SDS011;964;42.606;23.588;2022-10-22T08:20:55;13.23;;;11.83;;
1925;SDS011;964;42.606;23.588;2022-10-22T08:23:22;14.97;;;12.97;;
1925;SDS011;964;42.606;23.588;2022-10-22T08:25:49;15.13;;;11.83;;
1925;SDS011;964;42.606;23.588;2022-10-22T08:28:16;16.10;;;12.80;;
1925;SDS011;964;42.606;23.588;2022-10-22T08:30:44;13.33;;;11.63;;
1925;SDS011;964;42.606;23.588;2022-10-22T08:33:12;17.63;;;12.10;;
1925;SDS011;964;42.606;23.588;2022-10-22T08:35:39;14.20;;;12.00;;
1925;SDS011;964;42.606;23.588;2022-10-22T08:38:06;15.57;;;12.73;;
1925;SDS011;964;42.606;23.588;2022-10-22T08:40:34;13.13;;;11.03;;
1925;SDS011;964;42.606;23.588;2022-10-22T08:46:08;14.27;;;12.20;;
1925;SDS011;964;42.606;23.588;2022-10-22T08:48:43;18.20;;;13.00;;
1925;SDS011;964;42.606;23.588;2022-10-22T08:51:14;12.60;;;11.30;;
1925;SDS011;964;42.606;23.588;2022-10-22T08:53:45;12.07;;;10.80;;
1925;SDS011;964;42.606;23.588;2022-10-22T08:56:21;18.07;;;12.93;;
1925;SDS011;964;42.606;23.588;2022-10-22T08:58:50;14.13;;;12.67;;
1925;SDS011;964;42.606;23.588;2022-10-22T09:01:28;15.90;;;10.90;;
1925;SDS011;964;42.606;23.588;2022-10-22T09:04:00;20.53;;;13.47;;
1925;SDS011;964;42.606;23.588;2022-10-22T09:06:34;16.97;;;14.40;;
1925;SDS011;964;42.606;23.588;2022-10-22T09:09:04;18.43;;;13.27;;
1925;SDS011;964;42.606;23.588;2022-10-22T09:11:38;21.27;;;13.93;;
1925;SDS011;964;42.606;23.588;2022-10-22T09:14:09;15.67;;;12.30;;
1925;SDS011;964;42.606;23.588;2022-10-22T09:16:46;13.93;;;11.70;;
1925;SDS011;964;42.606;23.588;2022-10-22T09:19:28;14.17;;;11.73;;
1925;SDS011;964;42.606;23.588;2022-10-22T09:22:07;13.23;;;11.40;;
1925;SDS011;964;42.606;23.588;2022-10-22T09:24:47;12.77;;;11.13;;
1925;SDS011;964;42.606;23.588;2022-10-22T09:27:18;11.93;;;10.57;;
1925;SDS011;964;42.606;23.588;2022-10-22T09:29:48;13.63;;;11.33;;
1925;SDS011;964;42.606;23.588;2022-10-22T09:32:16;14.90;;;10.93;;
1925;SDS011;964;42.606;23.588;2022-10-22T09:34:43;13.43;;;11.20;;
1925;SDS011;964;42.606;23.588;2022-10-22T09:37:10;12.43;;;11.23;;
1925;SDS011;964;42.606;23.588;2022-10-22T09:39:38;11.77;;;10.60;;
1925;SDS011;964;42.606;23.588;2022-10-22T09:42:07;11.10;;;10.00;;
1925;SDS011;964;42.606;23.588;2022-10-22T09:44:36;18.80;;;11.37;;
1925;SDS011;964;42.606;23.588;2022-10-22T09:47:04;12.73;;;11.10;;
1925;SDS011;964;42.606;23.588;2022-10-22T09:49:34;12.33;;;10.70;;
1925;SDS011;964;42.606;23.588;2022-10-22T09:52:01;13.03;;;11.43;;
1925;SDS011;964;42.606;23.588;2022-10-22T09:54:36;12.50;;;11.17;;
1925;SDS011;964;42.606;23.588;2022-10-22T09:57:05;12.53;;;10.57;;
1925;SDS011;964;42.606;23.588;2022-10-22T09:59:41;11.87;;;10.53;;
1925;SDS011;964;42.606;23.588;2022-10-22T10:02:11;20.73;;;10.47;;
1925;SDS011;964;42.606;23.588;2022-10-22T10:04:41;12.30;;;10.47;;
1925;SDS011;964;42.606;23.588;2022-10-22T10:07:14;13.50;;;11.20;;
1925;SDS011;964;42.606;23.588;2022-10-22T10:09:42;13.63;;;12.20;;
1925;SDS011;964;42.606;23.588;2022-10-22T10:12:13;11.67;;;10.57;;
1925;SDS011;964;42.606;23.588;2022-10-22T10:14:51;11.90;;;10.60;;
1925;SDS011;964;42.606;23.588;2022-10-22T10:17:29;14.47;;;11.63;;
1925;SDS011;964;42.606;23.588;2022-10-22T10:20:08;13.57;;;10.17;;
1925;SDS011;964;42.606;23.588;2022-10-22T10:22:46;13.60;;;10.37;;
1925;SDS011;964;42.606;23.588;2022-10-22T10:28:19;11.77;;;10.57;;
1925;SDS011;964;42.606;23.588;2022-10-22T10:30:56;11.87;;;10.63;;
1925;SDS011;964;42.606;23.588;2022-10-22T10:33:35;11.90;;;10.43;;
1925;SDS011;964;42.606;23.588;2022-10-22T10:36:16;12.53;;;10.53;;
1925;SDS011;964;42.606;23.588;2022-10-22T10:38:51;13.07;;;11.10;;
1925;SDS011;964;42.606;23.588;2022-10-22T10:41:25;14.73;;;11.30;;
1925;SDS011;964;42.606;23.588;2022-10-22T10:44:09;13.07;;;11.40;;
1925;SDS011;964;42.606;23.588;2022-10-22T10:46:48;12.27;;;10.80;;
1925;SDS011;964;42.606;23.588;2022-10-22T10:49:25;11.57;;;10.37;;
1925;SDS011;964;42.606;23.588;2022-10-22T10:51:56;16.30;;;11.40;;
1925;SDS011;964;42.606;23.588;2022-10-22T10:54:39;13.07;;;10.83;;
1925;SDS011;964;42.606;23.588;2022-10-22T10:57:12;11.77;;;10.57;;
1925;SDS011;964;42.606;23.588;2022-10-22T10:59:53;15.10;;;10.00;;
1925;SDS011;964;42.606;23.588;2022-10-22T11:02:39;12.83;;;11.00;;
1925;SDS011;964;42.606;23.588;2022-10-22T11:05:21;12.13;;;10.07;;
1925;SDS011;964;42.606;23.588;2022-10-22T11:07:58;12.17;;;10.33;;
1925;SDS011;964;42.606;23.588;2022-10-22T11:10:29;16.20;;;10.80;;
1925;SDS011;964;42.606;23.588;2022-10-22T11:13:02;10.87;;;9.10;;
1925;SDS011;964;42.606;23.588;2022-10-22T11:15:36;13.57;;;11.00;;
1925;SDS011;964;42.606;23.588;2022-10-22T11:18:10;14.80;;;10.63;;
1925;SDS011;964;42.606;23.588;2022-10-22T11:20:49;12.30;;;9.83;;
1925;SDS011;964;42.606;23.588;2022-10-22T11:23:26;16.53;;;10.83;;
1925;SDS011;964;42.606;23.588;2022-10-22T11:25:58;15.13;;;11.30;;
1925;SDS011;964;42.606;23.588;2022-10-22T11:28:27;11.43;;;10.33;;
1925;SDS011;964;42.606;23.588;2022-10-22T11:30:59;12.77;;;10.20;;
1925;SDS011;964;42.606;23.588;2022-10-22T11:33:32;14.80;;;10.90;;
1925;SDS011;964;42.606;23.588;2022-10-22T11:36:05;13.57;;;10.20;;
1925;SDS011;964;42.606;23.588;2022-10-22T11:38:35;14.03;;;11.03;;
1925;SDS011;964;42.606;23.588;2022-10-22T11:41:04;10.67;;;9.57;;
1925;SDS011;964;42.606;23.588;2022-10-22T11:43:50;12.93;;;11.27;;
1925;SDS011;964;42.606;23.588;2022-10-22T11:46:26;13.43;;;10.07;;
1925;SDS011;964;42.606;23.588;2022-10-22T11:49:00;11.10;;;9.97;;
1925;SDS011;964;42.606;23.588;2022-10-22T11:51:31;10.67;;;9.67;;
1925;SDS011;964;42.606;23.588;2022-10-22T11:54:02;12.30;;;10.47;;
1925;SDS011;964;42.606;23.588;2022-10-22T11:56:56;10.87;;;9.73;;
1925;SDS011;964;42.606;23.588;2022-10-22T11:59:38;15.03;;;9.70;;
1925;SDS011;964;42.606;23.588;2022-10-22T12:08:15;9.30;;;8.37;;
1925;SDS011;964;42.606;23.588;2022-10-22T12:10:55;10.97;;;9.90;;
1925;SDS011;964;42.606;23.588;2022-10-22T12:13:29;10.30;;;9.13;;
1925;SDS011;964;42.606;23.588;2022-10-22T12:15:58;12.00;;;9.53;;
1925;SDS011;964;42.606;23.588;2022-10-22T12:18:33;10.43;;;9.43;;
1925;SDS011;964;42.606;23.588;2022-10-22T12:21:05;11.30;;;9.30;;
1925;SDS011;964;42.606;23.588;2022-10-22T12:23:37;9.70;;;8.47;;
1925;SDS011;964;42.606;23.588;2022-10-22T12:26:19;10.00;;;8.90;;
1925;SDS011;964;42.606;23.588;2022-10-22T12:28:50;12.60;;;9.10;;
1925;SDS011;964;42.606;23.588;2022-10-22T12:31:22;9.73;;;8.83;;
1925;SDS011;964;42.606;23.588;2022-10-22T12:33:54;11.43;;;9.40;;
1925;SDS011;964;42.606;23.588;2022-10-22T12:36:21;11.40;;;9.07;;
1925;SDS011;964;42.606;23.588;2022-10-22T12:38:51;9.90;;;8.90;;
1925;SDS011;964;42.606;23.588;2022-10-22T12:41:20;14.40;;;9.80;;
1925;SDS011;964;42.606;23.588;2022-10-22T12:43:47;9.00;;;7.93;;
1925;SDS011;964;42.606;23.588;2022-10-22T12:46:14;13.37;;;10.90;;
1925;SDS011;964;42.606;23.588;2022-10-22T12:48:42;10.60;;;8.50;;
1925;SDS011;964;42.606;23.588;2022-10-22T12:51:13;10.97;;;9.60;;
1925;SDS011;964;42.606;23.588;2022-10-22T12:53:44;9.20;;;8.30;;
1925;SDS011;964;42.606;23.588;2022-10-22T12:56:13;12.70;;;10.10;;
1925;SDS011;964;42.606;23.588;2022-10-22T12:58:44;10.73;;;9.57;;
1925;SDS011;964;42.606;23.588;2022-10-22T13:01:13;9.70;;;8.73;;
1925;SDS011;964;42.606;23.588;2022-10-22T13:03:43;10.30;;;9.30;;
1925;SDS011;964;42.606;23.588;2022-10-22T13:06:21;11.53;;;9.60;;
1925;SDS011;964;42.606;23.588;2022-10-22T13:09:01;10.27;;;9.27;;
1925;SDS011;964;42.606;23.588;2022-10-22T13:11:32;11.50;;;10.00;;
1925;SDS011;964;42.606;23.588;2022-10-22T13:14:05;11.53;;;8.53;;
1925;SDS011;964;42.606;23.588;2022-10-22T13:16:41;11.40;;;8.83;;
1925;SDS011;964;42.606;23.588;2022-10-22T13:22:02;10.60;;;9.40;;
1925;SDS011;964;42.606;23.588;2022-10-22T13:24:29;15.93;;;9.83;;
1925;SDS011;964;42.606;23.588;2022-10-22T13:26:56;11.00;;;8.93;;
1925;SDS011;964;42.606;23.588;2022-10-22T13:29:25;12.33;;;9.00;;
1925;SDS011;964;42.606;23.588;2022-10-22T13:31:52;12.40;;;10.20;;
1925;SDS011;964;42.606;23.588;2022-10-22T13:34:19;13.00;;;10.23;;
1925;SDS011;964;42.606;23.588;2022-10-22T13:36:48;10.07;;;9.00;;
1925;SDS011;964;42.606;23.588;2022-10-22T13:39:16;12.53;;;9.90;;
1925;SDS011;964;42.606;23.588;2022-10-22T13:41:43;10.73;;;9.43;;
1925;SDS011;964;42.606;23.588;2022-10-22T13:44:11;10.87;;;9.90;;
1925;SDS011;964;42.606;23.588;2022-10-22T13:46:39;11.10;;;9.23;;
1925;SDS011;964;42.606;23.588;2022-10-22T13:49:09;15.70;;;10.03;;
1925;SDS011;964;42.606;23.588;2022-10-22T13:51:40;19.73;;;10.20;;
1925;SDS011;964;42.606;23.588;2022-10-22T13:54:08;11.63;;;9.30;;
1925;SDS011;964;42.606;23.588;2022-10-22T13:56:40;13.03;;;9.40;;
1925;SDS011;964;42.606;23.588;2022-10-22T13:59:07;11.10;;;10.00;;
1925;SDS011;964;42.606;23.588;2022-10-22T14:01:35;10.30;;;9.17;;
1925;SDS011;964;42.606;23.588;2022-10-22T14:04:04;11.97;;;10.47;;
1925;SDS011;964;42.606;23.588;2022-10-22T14:06:33;12.73;;;10.07;;
1925;SDS011;964;42.606;23.588;2022-10-22T14:09:01;17.10;;;9.60;;
1925;SDS011;964;42.606;23.588;2022-10-22T14:11:32;16.67;;;11.00;;
1925;SDS011;964;42.606;23.588;2022-10-22T14:14:00;13.90;;;10.30;;
1925;SDS011;964;42.606;23.588;2022-10-22T14:16:32;14.20;;;10.50;;
1925;SDS011;964;42.606;23.588;2022-10-22T14:19:00;16.47;;;10.40;;
1925;SDS011;964;42.606;23.588;2022-10-22T14:21:31;14.53;;;10.87;;
1925;SDS011;964;42.606;23.588;2022-10-22T14:24:00;31.57;;;11.93;;
1925;SDS011;964;42.606;23.588;2022-10-22T14:26:29;12.80;;;10.80;;
1925;SDS011;964;42.606;23.588;2022-10-22T14:28:59;18.20;;;11.57;;
1925;SDS011;964;42.606;23.588;2022-10-22T14:31:26;20.00;;;12.03;;
1925;SDS011;964;42.606;23.588;2022-10-22T14:33:53;24.23;;;11.50;;
1925;SDS011;964;42.606;23.588;2022-10-22T14:36:20;13.40;;;10.40;;
1925;SDS011;964;42.606;23.588;2022-10-22T14:38:48;20.33;;;11.50;;
1925;SDS011;964;42.606;23.588;2022-10-22T14:41:17;16.10;;;10.90;;
1925;SDS011;964;42.606;23.588;2022-10-22T14:43:45;17.13;;;11.53;;
1925;SDS011;964;42.606;23.588;2022-10-22T14:46:13;25.77;;;11.70;;
1925;SDS011;964;42.606;23.588;2022-10-22T14:48:41;24.40;;;12.87;;
1925;SDS011;964;42.606;23.588;2022-10-22T14:51:10;29.83;;;12.47;;
1925;SDS011;964;42.606;23.588;2022-10-22T14:53:38;20.57;;;12.13;;
1925;SDS011;964;42.606;23.588;2022-10-22T14:56:07;24.00;;;12.17;;
1925;SDS011;964;42.606;23.588;2022-10-22T14:58:36;17.27;;;12.07;;
1925;SDS011;964;42.606;23.588;2022-10-22T15:01:03;25.90;;;12.50;;
1925;SDS011;964;42.606;23.588;2022-10-22T15:03:31;23.23;;;11.97;;
1925;SDS011;964;42.606;23.588;2022-10-22T15:05:57;22.90;;;11.97;;
1925;SDS011;964;42.606;23.588;2022-10-22T15:08:24;18.83;;;10.33;;
1925;SDS011;964;42.606;23.588;2022-10-22T15:10:58;19.20;;;11.20;;
1925;SDS011;964;42.606;23.588;2022-10-22T15:13:28;15.40;;;11.80;;
1925;SDS011;964;42.606;23.588;2022-10-22T15:15:55;21.33;;;13.80;;
1925;SDS011;964;42.606;23.588;2022-10-22T15:18:22;18.23;;;12.53;;
1925;SDS011;964;42.606;23.588;2022-10-22T15:20:53;18.53;;;13.90;;
1925;SDS011;964;42.606;23.588;2022-10-22T15:23:21;31.57;;;19.37;;